sensor_id;sensor_type;location;lat;lon;timestamp;temperature;humidity
19561;DHT22;9927;47.792;10.616;2023-05-10T03:01:10;12.70;99.90
19561;DHT22;9927;47.792;10.616;2023-05-10T03:03:37;12.70;99.90
19561;DHT22;9927;47.792;10.616;2023-05-10T03:06:04;12.80;99.90
19561;DHT22;9927;47.792;10.616;2023-05-10T03:08:31;12.50;99.90
19561;DHT22;9927;47.792;10.616;2023-05-10T03:20:10;12.60;99.90
19561;DHT22;9927;47.792;10.616;2023-05-10T03:22:46;12.70;99.90
19561;DHT22;9927;47.792;10.616;2023-05-10T03:25:16;12.60;99.90
19561;DHT22;9927;47.792;10.616;2023-05-10T03:27:44;12.60;99.90
19561;DHT22;9927;47.792;10.616;2023-05-10T03:30:12;12.70;99.90
19561;DHT22;9927;47.792;10.616;2023-05-10T03:32:40;12.70;99.90
19561;DHT22;9927;47.792;10.616;2023-05-10T03:35:09;12.70;99.90
19561;DHT22;9927;47.792;10.616;2023-05-10T03:37:36;12.70;99.90
19561;DHT22;9927;47.792;10.616;2023-05-10T03:40:04;12.70;99.90
19561;DHT22;9927;47.792;10.616;2023-05-10T03:42:31;12.70;99.90
19561;DHT22;9927;47.792;10.616;2023-05-10T03:44:59;12.70;99.90
19561;DHT22;9927;47.792;10.616;2023-05-10T03:47:26;12.70;99.90
19561;DHT22;9927;47.792;10.616;2023-05-10T03:49:53;12.70;99.90
19561;DHT22;9927;47.792;10.616;2023-05-10T03:52:20;12.70;99.90
19561;DHT22;9927;47.792;10.616;2023-05-10T03:54:48;12.70;99.90
19561;DHT22;9927;47.792;10.616;2023-05-10T03:57:15;12.80;99.90
19561;DHT22;9927;47.792;10.616;2023-05-10T03:59:42;12.80;99.90
19561;DHT22;9927;47.792;10.616;2023-05-10T04:02:09;12.80;99.90
19561;DHT22;9927;47.792;10.616;2023-05-10T04:04:36;12.80;99.90
19561;DHT22;9927;47.792;10.616;2023-05-10T04:07:04;12.80;99.90
19561;DHT22;9927;47.792;10.616;2023-05-10T04:09:31;12.80;99.90
19561;DHT22;9927;47.792;10.616;2023-05-10T04:11:59;12.70;99.90
19561;DHT22;9927;47.792;10.616;2023-05-10T04:14:29;12.60;99.90
19561;DHT22;9927;47.792;10.616;2023-05-10T04:16:56;12.50;99.90
19561;DHT22;9927;47.792;10.616;2023-05-10T04:19:23;12.50;99.90
19561;DHT22;9927;47.792;10.616;2023-05-10T04:21:51;12.60;99.90
19561;DHT22;9927;47.792;10.616;2023-05-10T04:24:18;12.70;99.90
19561;DHT22;9927;47.792;10.616;2023-05-10T04:26:45;12.60;99.90
19561;DHT22;9927;47.792;10.616;2023-05-10T04:29:12;12.60;99.90
19561;DHT22;9927;47.792;10.616;2023-05-10T04:31:40;12.70;99.90
19561;DHT22;9927;47.792;10.616;2023-05-10T04:34:07;12.70;99.90
19561;DHT22;9927;47.792;10.616;2023-05-10T04:36:34;12.70;99.90
19561;DHT22;9927;47.792;10.616;2023-05-10T04:39:03;12.80;99.90
19561;DHT22;9927;47.792;10.616;2023-05-10T04:41:30;12.80;99.90
19561;DHT22;9927;47.792;10.616;2023-05-10T04:43:58;12.80;99.90
19561;DHT22;9927;47.792;10.616;2023-05-10T04:46:25;12.80;99.90
19561;DHT22;9927;47.792;10.616;2023-05-10T04:48:52;12.90;99.90
19561;DHT22;9927;47.792;10.616;2023-05-10T04:51:20;12.90;99.90
19561;DHT22;9927;47.792;10.616;2023-05-10T04:53:47;13.00;99.90
19561;DHT22;9927;47.792;10.616;2023-05-10T04:56:31;13.00;99.90
19561;DHT22;9927;47.792;10.616;2023-05-10T04:58:59;13.00;99.90
19561;DHT22;9927;47.792;10.616;2023-05-10T05:01:26;13.10;99.90
19561;DHT22;9927;47.792;10.616;2023-05-10T05:03:53;13.10;99.90
19561;DHT22;9927;47.792;10.616;2023-05-10T05:06:21;13.00;99.90
19561;DHT22;9927;47.792;10.616;2023-05-10T05:08:48;12.80;99.90
19561;DHT22;9927;47.792;10.616;2023-05-10T05:11:17;12.90;99.90
19561;DHT22;9927;47.792;10.616;2023-05-10T05:13:44;12.90;99.90
19561;DHT22;9927;47.792;10.616;2023-05-10T05:16:11;13.00;99.90
19561;DHT22;9927;47.792;10.616;2023-05-10T05:18:39;13.20;99.90
19561;DHT22;9927;47.792;10.616;2023-05-10T05:21:19;13.20;99.90
19561;DHT22;9927;47.792;10.616;2023-05-10T05:23:46;13.20;99.90
19561;DHT22;9927;47.792;10.616;2023-05-10T05:26:13;13.10;99.90
19561;DHT22;9927;47.792;10.616;2023-05-10T05:28:42;13.00;99.90
19561;DHT22;9927;47.792;10.616;2023-05-10T05:31:09;12.90;99.90
19561;DHT22;9927;47.792;10.616;2023-05-10T05:33:37;12.90;99.90
19561;DHT22;9927;47.792;10.616;2023-05-10T05:36:05;13.10;99.90
19561;DHT22;9927;47.792;10.616;2023-05-10T05:38:32;13.20;99.90
19561;DHT22;9927;47.792;10.616;2023-05-10T05:41:00;13.40;99.90
19561;DHT22;9927;47.792;10.616;2023-05-10T05:43:27;13.50;99.90
19561;DHT22;9927;47.792;10.616;2023-05-10T05:45:55;13.60;99.90
19561;DHT22;9927;47.792;10.616;2023-05-10T05:48:25;13.70;99.90
19561;DHT22;9927;47.792;10.616;2023-05-10T05:50:55;13.80;99.90
19561;DHT22;9927;47.792;10.616;2023-05-10T05:53:26;13.90;99.90
19561;DHT22;9927;47.792;10.616;2023-05-10T05:55:58;13.90;99.90
19561;DHT22;9927;47.792;10.616;2023-05-10T05:58:25;14.00;99.90
19561;DHT22;9927;47.792;10.616;2023-05-10T06:00:52;14.10;99.90
19561;DHT22;9927;47.792;10.616;2023-05-10T06:03:20;14.20;99.90
19561;DHT22;9927;47.792;10.616;2023-05-10T06:05:47;14.20;99.90
19561;DHT22;9927;47.792;10.616;2023-05-10T06:08:15;14.20;99.90
19561;DHT22;9927;47.792;10.616;2023-05-10T06:10:42;14.10;99.90
19561;DHT22;9927;47.792;10.616;2023-05-10T06:13:10;14.10;99.90
19561;DHT22;9927;47.792;10.616;2023-05-10T06:15:38;14.10;99.90
19561;DHT22;9927;47.792;10.616;2023-05-10T06:18:05;14.00;99.90
19561;DHT22;9927;47.792;10.616;2023-05-10T06:20:33;14.00;99.90
19561;DHT22;9927;47.792;10.616;2023-05-10T06:23:00;14.00;99.90
19561;DHT22;9927;47.792;10.616;2023-05-10T06:25:27;14.10;99.90
19561;DHT22;9927;47.792;10.616;2023-05-10T06:27:54;13.90;99.90
19561;DHT22;9927;47.792;10.616;2023-05-10T06:30:25;13.90;99.90
19561;DHT22;9927;47.792;10.616;2023-05-10T06:32:56;13.80;99.90
19561;DHT22;9927;47.792;10.616;2023-05-10T06:35:23;13.90;99.90
19561;DHT22;9927;47.792;10.616;2023-05-10T06:37:51;14.00;99.90
19561;DHT22;9927;47.792;10.616;2023-05-10T06:40:18;13.90;99.90
19561;DHT22;9927;47.792;10.616;2023-05-10T06:42:47;13.70;99.90
19561;DHT22;9927;47.792;10.616;2023-05-10T06:45:15;13.60;99.90
19561;DHT22;9927;47.792;10.616;2023-05-10T06:47:43;13.70;99.90
19561;DHT22;9927;47.792;10.616;2023-05-10T06:50:11;13.90;99.90
19561;DHT22;9927;47.792;10.616;2023-05-10T06:52:41;13.90;99.90
19561;DHT22;9927;47.792;10.616;2023-05-10T06:55:08;13.90;99.90
19561;DHT22;9927;47.792;10.616;2023-05-10T06:57:36;13.80;99.90
19561;DHT22;9927;47.792;10.616;2023-05-10T07:00:03;13.80;99.90
19561;DHT22;9927;47.792;10.616;2023-05-10T07:02:31;13.50;99.90
19561;DHT22;9927;47.792;10.616;2023-05-10T07:04:59;13.50;99.90
19561;DHT22;9927;47.792;10.616;2023-05-10T07:07:41;13.60;99.90
19561;DHT22;9927;47.792;10.616;2023-05-10T07:10:09;13.70;99.90
19561;DHT22;9927;47.792;10.616;2023-05-10T07:12:36;14.00;99.90
19561;DHT22;9927;47.792;10.616;2023-05-10T07:15:05;14.30;99.90
19561;DHT22;9927;47.792;10.616;2023-05-10T07:17:33;14.50;99.90
19561;DHT22;9927;47.792;10.616;2023-05-10T07:20:00;14.60;99.90
19561;DHT22;9927;47.792;10.616;2023-05-10T07:22:28;14.70;99.90
19561;DHT22;9927;47.792;10.616;2023-05-10T07:24:55;15.00;99.90
19561;DHT22;9927;47.792;10.616;2023-05-10T07:27:22;15.20;99.90
19561;DHT22;9927;47.792;10.616;2023-05-10T07:29:50;15.20;99.90
19561;DHT22;9927;47.792;10.616;2023-05-10T07:32:17;14.90;99.90
19561;DHT22;9927;47.792;10.616;2023-05-10T07:34:44;14.80;99.90
19561;DHT22;9927;47.792;10.616;2023-05-10T07:37:12;15.10;99.90
19561;DHT22;9927;47.792;10.616;2023-05-10T07:39:39;15.30;99.90
19561;DHT22;9927;47.792;10.616;2023-05-10T07:42:06;15.60;99.90
19561;DHT22;9927;47.792;10.616;2023-05-10T07:44:34;15.50;99.90
19561;DHT22;9927;47.792;10.616;2023-05-10T07:47:01;15.40;99.90
19561;DHT22;9927;47.792;10.616;2023-05-10T07:49:28;15.70;99.90
19561;DHT22;9927;47.792;10.616;2023-05-10T07:51:55;15.70;99.90
19561;DHT22;9927;47.792;10.616;2023-05-10T07:54:22;15.90;99.90
19561;DHT22;9927;47.792;10.616;2023-05-10T07:56:50;15.90;99.90
19561;DHT22;9927;47.792;10.616;2023-05-10T07:59:18;16.10;99.90
19561;DHT22;9927;47.792;10.616;2023-05-10T08:01:45;16.10;99.90
19561;DHT22;9927;47.792;10.616;2023-05-10T08:04:12;16.30;99.90
19561;DHT22;9927;47.792;10.616;2023-05-10T08:06:40;16.30;99.90
19561;DHT22;9927;47.792;10.616;2023-05-10T08:09:09;16.10;99.90
19561;DHT22;9927;47.792;10.616;2023-05-10T08:11:36;16.30;99.90
19561;DHT22;9927;47.792;10.616;2023-05-10T08:14:03;16.30;99.90
19561;DHT22;9927;47.792;10.616;2023-05-10T08:16:31;16.20;99.90
19561;DHT22;9927;47.792;10.616;2023-05-10T08:18:59;16.30;99.90
19561;DHT22;9927;47.792;10.616;2023-05-10T08:21:26;16.40;99.90
19561;DHT22;9927;47.792;10.616;2023-05-10T08:23:54;16.60;99.90
19561;DHT22;9927;47.792;10.616;2023-05-10T08:26:21;16.70;99.90
19561;DHT22;9927;47.792;10.616;2023-05-10T08:28:48;17.00;99.90
19561;DHT22;9927;47.792;10.616;2023-05-10T08:31:16;16.80;99.90
19561;DHT22;9927;47.792;10.616;2023-05-10T08:33:43;16.80;99.90
19561;DHT22;9927;47.792;10.616;2023-05-10T08:36:11;16.60;99.90
19561;DHT22;9927;47.792;10.616;2023-05-10T08:38:40;16.30;99.90
19561;DHT22;9927;47.792;10.616;2023-05-10T08:41:08;16.00;99.90
19561;DHT22;9927;47.792;10.616;2023-05-10T08:43:36;15.90;99.90
19561;DHT22;9927;47.792;10.616;2023-05-10T08:46:05;15.80;99.90
19561;DHT22;9927;47.792;10.616;2023-05-10T08:48:34;15.70;99.90
19561;DHT22;9927;47.792;10.616;2023-05-10T08:51:02;15.70;99.90
19561;DHT22;9927;47.792;10.616;2023-05-10T08:53:33;15.80;99.90
19561;DHT22;9927;47.792;10.616;2023-05-10T08:56:02;16.00;99.90
19561;DHT22;9927;47.792;10.616;2023-05-10T08:58:30;16.20;99.90
19561;DHT22;9927;47.792;10.616;2023-05-10T09:00:59;16.50;99.90
19561;DHT22;9927;47.792;10.616;2023-05-10T09:03:26;16.60;99.90
19561;DHT22;9927;47.792;10.616;2023-05-10T09:05:53;16.50;99.90
19561;DHT22;9927;47.792;10.616;2023-05-10T09:08:26;16.40;99.90
19561;DHT22;9927;47.792;10.616;2023-05-10T09:10:56;16.60;99.90
19561;DHT22;9927;47.792;10.616;2023-05-10T09:13:24;16.40;99.90
19561;DHT22;9927;47.792;10.616;2023-05-10T09:15:53;16.00;99.90
19561;DHT22;9927;47.792;10.616;2023-05-10T09:18:20;15.50;99.90
19561;DHT22;9927;47.792;10.616;2023-05-10T09:20:48;14.90;99.90
19561;DHT22;9927;47.792;10.616;2023-05-10T09:23:15;15.00;99.90
19561;DHT22;9927;47.792;10.616;2023-05-10T09:25:43;14.80;99.90
19561;DHT22;9927;47.792;10.616;2023-05-10T09:28:11;14.60;99.90
19561;DHT22;9927;47.792;10.616;2023-05-10T09:30:38;14.40;99.90
19561;DHT22;9927;47.792;10.616;2023-05-10T09:33:06;14.40;99.90
19561;DHT22;9927;47.792;10.616;2023-05-10T09:35:34;14.30;99.90
19561;DHT22;9927;47.792;10.616;2023-05-10T09:38:03;14.40;99.90
19561;DHT22;9927;47.792;10.616;2023-05-10T09:40:31;14.60;99.90
19561;DHT22;9927;47.792;10.616;2023-05-10T09:43:04;14.60;99.90
19561;DHT22;9927;47.792;10.616;2023-05-10T09:45:32;14.80;99.90
19561;DHT22;9927;47.792;10.616;2023-05-10T09:48:04;15.10;99.90
19561;DHT22;9927;47.792;10.616;2023-05-10T09:50:31;15.00;99.90
19561;DHT22;9927;47.792;10.616;2023-05-10T09:53:03;15.00;99.90
19561;DHT22;9927;47.792;10.616;2023-05-10T09:55:42;15.20;99.90
19561;DHT22;9927;47.792;10.616;2023-05-10T09:58:13;15.30;99.90
19561;DHT22;9927;47.792;10.616;2023-05-10T10:00:44;15.00;99.90
19561;DHT22;9927;47.792;10.616;2023-05-10T10:03:17;15.00;99.90
19561;DHT22;9927;47.792;10.616;2023-05-10T10:05:45;15.00;99.90
19561;DHT22;9927;47.792;10.616;2023-05-10T10:08:14;14.90;99.90
19561;DHT22;9927;47.792;10.616;2023-05-10T10:10:41;15.10;99.90
19561;DHT22;9927;47.792;10.616;2023-05-10T10:13:12;15.10;99.90
19561;DHT22;9927;47.792;10.616;2023-05-10T10:15:39;14.90;99.90
19561;DHT22;9927;47.792;10.616;2023-05-10T10:18:06;14.90;99.90
19561;DHT22;9927;47.792;10.616;2023-05-10T10:20:37;15.30;99.90
19561;DHT22;9927;47.792;10.616;2023-05-10T10:23:04;15.30;99.90
19561;DHT22;9927;47.792;10.616;2023-05-10T10:25:31;15.70;99.90
19561;DHT22;9927;47.792;10.616;2023-05-10T10:31:40;16.80;99.90
19561;DHT22;9927;47.792;10.616;2023-05-10T10:34:10;17.10;99.90
19561;DHT22;9927;47.792;10.616;2023-05-10T10:36:45;17.10;99.90
19561;DHT22;9927;47.792;10.616;2023-05-10T10:39:14;17.00;99.90
19561;DHT22;9927;47.792;10.616;2023-05-10T10:41:55;16.30;99.90
19561;DHT22;9927;47.792;10.616;2023-05-10T10:55:09;16.00;99.90
19561;DHT22;9927;47.792;10.616;2023-05-10T10:57:46;15.80;99.90
19561;DHT22;9927;47.792;10.616;2023-05-10T11:00:24;15.70;99.90
19561;DHT22;9927;47.792;10.616;2023-05-10T11:05:49;15.60;99.90
19561;DHT22;9927;47.792;10.616;2023-05-10T11:13:47;15.60;99.90
19561;DHT22;9927;47.792;10.616;2023-05-10T11:16:24;15.60;99.90
19561;DHT22;9927;47.792;10.616;2023-05-10T11:18:59;15.70;99.90
19561;DHT22;9927;47.792;10.616;2023-05-10T11:21:30;15.50;99.90
19561;DHT22;9927;47.792;10.616;2023-05-10T11:23:59;15.30;99.90
19561;DHT22;9927;47.792;10.616;2023-05-10T11:26:35;15.10;99.90
19561;DHT22;9927;47.792;10.616;2023-05-10T11:29:03;15.00;99.90
19561;DHT22;9927;47.792;10.616;2023-05-10T11:31:32;14.80;99.90
19561;DHT22;9927;47.792;10.616;2023-05-10T11:34:00;14.60;99.90
19561;DHT22;9927;47.792;10.616;2023-05-10T11:36:35;14.60;99.90
19561;DHT22;9927;47.792;10.616;2023-05-10T11:39:04;14.70;99.90
19561;DHT22;9927;47.792;10.616;2023-05-10T11:41:31;14.70;99.90
19561;DHT22;9927;47.792;10.616;2023-05-10T11:43:59;14.60;99.90
19561;DHT22;9927;47.792;10.616;2023-05-10T11:46:27;14.80;99.90
19561;DHT22;9927;47.792;10.616;2023-05-10T11:49:00;14.90;99.90
19561;DHT22;9927;47.792;10.616;2023-05-10T11:51:29;15.00;99.90
19561;DHT22;9927;47.792;10.616;2023-05-10T11:53:57;15.10;99.90
19561;DHT22;9927;47.792;10.616;2023-05-10T11:56:24;15.20;99.90
19561;DHT22;9927;47.792;10.616;2023-05-10T11:58:57;14.80;99.90
19561;DHT22;9927;47.792;10.616;2023-05-10T12:01:26;14.90;99.90
19561;DHT22;9927;47.792;10.616;2023-05-10T12:03:55;15.10;99.90
19561;DHT22;9927;47.792;10.616;2023-05-10T12:06:30;15.20;99.90
19561;DHT22;9927;47.792;10.616;2023-05-10T12:08:59;15.00;99.90
19561;DHT22;9927;47.792;10.616;2023-05-10T12:11:28;14.90;99.90
19561;DHT22;9927;47.792;10.616;2023-05-10T12:13:56;14.90;99.90
19561;DHT22;9927;47.792;10.616;2023-05-10T12:16:26;14.80;99.90
19561;DHT22;9927;47.792;10.616;2023-05-10T12:18:59;14.80;99.90
19561;DHT22;9927;47.792;10.616;2023-05-10T12:21:29;15.00;99.90
19561;DHT22;9927;47.792;10.616;2023-05-10T12:24:04;15.00;99.90
19561;DHT22;9927;47.792;10.616;2023-05-10T12:26:32;14.90;99.90
19561;DHT22;9927;47.792;10.616;2023-05-10T12:29:17;14.80;99.90
19561;DHT22;9927;47.792;10.616;2023-05-10T12:31:58;14.70;99.90
19561;DHT22;9927;47.792;10.616;2023-05-10T12:34:34;14.90;99.90
19561;DHT22;9927;47.792;10.616;2023-05-10T12:37:03;14.80;99.90
19561;DHT22;9927;47.792;10.616;2023-05-10T12:39:48;14.80;99.90
19561;DHT22;9927;47.792;10.616;2023-05-10T12:42:16;14.80;99.90
19561;DHT22;9927;47.792;10.616;2023-05-10T12:44:43;14.70;99.90
19561;DHT22;9927;47.792;10.616;2023-05-10T12:47:10;14.30;99.90
19561;DHT22;9927;47.792;10.616;2023-05-10T12:49:38;14.10;99.90
19561;DHT22;9927;47.792;10.616;2023-05-10T12:52:05;14.20;99.90
19561;DHT22;9927;47.792;10.616;2023-05-10T12:54:32;14.10;99.90
19561;DHT22;9927;47.792;10.616;2023-05-10T12:56:59;14.10;99.90
19561;DHT22;9927;47.792;10.616;2023-05-10T12:59:27;14.10;99.90
19561;DHT22;9927;47.792;10.616;2023-05-10T13:01:54;13.90;99.90
19561;DHT22;9927;47.792;10.616;2023-05-10T13:04:21;14.00;99.90
19561;DHT22;9927;47.792;10.616;2023-05-10T13:06:49;14.10;99.90
19561;DHT22;9927;47.792;10.616;2023-05-10T13:09:16;14.00;99.90
19561;DHT22;9927;47.792;10.616;2023-05-10T13:11:43;14.10;99.90
19561;DHT22;9927;47.792;10.616;2023-05-10T13:14:10;14.30;99.90
19561;DHT22;9927;47.792;10.616;2023-05-10T13:16:38;14.20;99.90
19561;DHT22;9927;47.792;10.616;2023-05-10T13:19:05;14.20;99.90
19561;DHT22;9927;47.792;10.616;2023-05-10T13:21:32;14.20;99.90
19561;DHT22;9927;47.792;10.616;2023-05-10T13:24:00;14.30;99.90
19561;DHT22;9927;47.792;10.616;2023-05-10T13:26:28;14.40;99.90
19561;DHT22;9927;47.792;10.616;2023-05-10T13:28:55;14.40;99.90
19561;DHT22;9927;47.792;10.616;2023-05-10T13:31:22;14.50;99.90
19561;DHT22;9927;47.792;10.616;2023-05-10T13:33:50;14.50;99.90
19561;DHT22;9927;47.792;10.616;2023-05-10T13:36:17;14.60;99.90
19561;DHT22;9927;47.792;10.616;2023-05-10T13:38:44;14.60;99.90
19561;DHT22;9927;47.792;10.616;2023-05-10T13:41:12;14.60;99.90
19561;DHT22;9927;47.792;10.616;2023-05-10T13:43:39;14.30;99.90
19561;DHT22;9927;47.792;10.616;2023-05-10T13:46:07;14.10;99.90
19561;DHT22;9927;47.792;10.616;2023-05-10T13:48:34;14.30;99.90
19561;DHT22;9927;47.792;10.616;2023-05-10T13:51:04;14.30;99.90
19561;DHT22;9927;47.792;10.616;2023-05-10T13:53:32;14.20;99.90
19561;DHT22;9927;47.792;10.616;2023-05-10T13:55:59;14.10;99.90
19561;DHT22;9927;47.792;10.616;2023-05-10T13:58:26;14.00;99.90
19561;DHT22;9927;47.792;10.616;2023-05-10T14:00:53;14.20;99.90
19561;DHT22;9927;47.792;10.616;2023-05-10T14:03:20;14.30;99.90
19561;DHT22;9927;47.792;10.616;2023-05-10T14:05:48;14.40;99.90
19561;DHT22;9927;47.792;10.616;2023-05-10T14:08:15;14.50;99.90
19561;DHT22;9927;47.792;10.616;2023-05-10T14:10:42;14.10;99.90
19561;DHT22;9927;47.792;10.616;2023-05-10T14:13:09;14.10;99.90
19561;DHT22;9927;47.792;10.616;2023-05-10T14:15:37;14.00;99.90
19561;DHT22;9927;47.792;10.616;2023-05-10T14:18:04;13.80;99.90
19561;DHT22;9927;47.792;10.616;2023-05-10T14:20:31;13.60;99.90
19561;DHT22;9927;47.792;10.616;2023-05-10T14:23:00;13.60;99.90
19561;DHT22;9927;47.792;10.616;2023-05-10T14:25:28;13.80;99.90
19561;DHT22;9927;47.792;10.616;2023-05-10T14:27:56;13.80;99.90
19561;DHT22;9927;47.792;10.616;2023-05-10T14:30:23;13.70;99.90
19561;DHT22;9927;47.792;10.616;2023-05-10T14:32:50;13.80;99.90
19561;DHT22;9927;47.792;10.616;2023-05-10T14:35:18;13.90;99.90
19561;DHT22;9927;47.792;10.616;2023-05-10T14:37:46;13.70;99.90
19561;DHT22;9927;47.792;10.616;2023-05-10T14:40:14;13.60;99.90
19561;DHT22;9927;47.792;10.616;2023-05-10T14:42:42;13.50;99.90
19561;DHT22;9927;47.792;10.616;2023-05-10T14:45:10;13.60;99.90
19561;DHT22;9927;47.792;10.616;2023-05-10T14:47:38;13.50;99.90
19561;DHT22;9927;47.792;10.616;2023-05-10T14:50:05;13.40;99.90
19561;DHT22;9927;47.792;10.616;2023-05-10T14:52:33;13.30;99.90
19561;DHT22;9927;47.792;10.616;2023-05-10T14:55:00;13.40;99.90
19561;DHT22;9927;47.792;10.616;2023-05-10T14:57:28;13.50;99.90
19561;DHT22;9927;47.792;10.616;2023-05-10T14:59:56;13.50;99.90
19561;DHT22;9927;47.792;10.616;2023-05-10T15:02:24;13.60;99.90
19561;DHT22;9927;47.792;10.616;2023-05-10T15:04:52;13.50;99.90
19561;DHT22;9927;47.792;10.616;2023-05-10T15:07:20;13.50;99.90
19561;DHT22;9927;47.792;10.616;2023-05-10T15:09:47;13.50;99.90
19561;DHT22;9927;47.792;10.616;2023-05-10T15:12:14;13.60;99.90
19561;DHT22;9927;47.792;10.616;2023-05-10T15:14:41;13.70;99.90
19561;DHT22;9927;47.792;10.616;2023-05-10T15:17:09;13.80;99.90
19561;DHT22;9927;47.792;10.616;2023-05-10T15:19:37;13.60;99.90
19561;DHT22;9927;47.792;10.616;2023-05-10T15:22:04;13.70;99.90
19561;DHT22;9927;47.792;10.616;2023-05-10T15:24:32;13.60;99.90
19561;DHT22;9927;47.792;10.616;2023-05-10T15:26:59;13.70;99.90
19561;DHT22;9927;47.792;10.616;2023-05-10T15:29:28;13.80;99.90
19561;DHT22;9927;47.792;10.616;2023-05-10T15:31:56;13.70;99.90
19561;DHT22;9927;47.792;10.616;2023-05-10T15:34:23;13.70;99.90
19561;DHT22;9927;47.792;10.616;2023-05-10T15:36:50;13.70;99.90
19561;DHT22;9927;47.792;10.616;2023-05-10T15:39:17;13.70;99.90
19561;DHT22;9927;47.792;10.616;2023-05-10T15:41:45;13.50;99.90
19561;DHT22;9927;47.792;10.616;2023-05-10T15:44:12;13.50;99.90
19561;DHT22;9927;47.792;10.616;2023-05-10T15:46:39;13.30;99.90
19561;DHT22;9927;47.792;10.616;2023-05-10T15:49:07;13.30;99.90
19561;DHT22;9927;47.792;10.616;2023-05-10T15:51:34;13.40;99.90
19561;DHT22;9927;47.792;10.616;2023-05-10T15:54:02;13.30;99.90
19561;DHT22;9927;47.792;10.616;2023-05-10T15:56:34;13.10;99.90
19561;DHT22;9927;47.792;10.616;2023-05-10T15:59:02;13.10;99.90
19561;DHT22;9927;47.792;10.616;2023-05-10T16:01:30;13.30;99.90
19561;DHT22;9927;47.792;10.616;2023-05-10T16:03:58;13.30;99.90
19561;DHT22;9927;47.792;10.616;2023-05-10T16:06:26;13.30;99.90
19561;DHT22;9927;47.792;10.616;2023-05-10T16:08:53;13.20;99.90
19561;DHT22;9927;47.792;10.616;2023-05-10T16:11:21;13.20;99.90
19561;DHT22;9927;47.792;10.616;2023-05-10T16:13:48;13.20;99.90
19561;DHT22;9927;47.792;10.616;2023-05-10T16:16:15;13.10;99.90
19561;DHT22;9927;47.792;10.616;2023-05-10T16:18:43;13.10;99.90
19561;DHT22;9927;47.792;10.616;2023-05-10T16:21:10;13.10;99.90
19561;DHT22;9927;47.792;10.616;2023-05-10T16:23:37;13.00;99.90
19561;DHT22;9927;47.792;10.616;2023-05-10T16:26:05;12.90;99.90
19561;DHT22;9927;47.792;10.616;2023-05-10T16:28:32;12.80;99.90
19561;DHT22;9927;47.792;10.616;2023-05-10T16:30:59;12.60;99.90
19561;DHT22;9927;47.792;10.616;2023-05-10T16:33:27;12.50;99.90
19561;DHT22;9927;47.792;10.616;2023-05-10T16:35:54;12.40;99.90
19561;DHT22;9927;47.792;10.616;2023-05-10T16:38:21;12.10;99.90
19561;DHT22;9927;47.792;10.616;2023-05-10T16:40:48;11.90;99.90
19561;DHT22;9927;47.792;10.616;2023-05-10T16:43:16;11.90;99.90
19561;DHT22;9927;47.792;10.616;2023-05-10T16:45:43;11.90;99.90
19561;DHT22;9927;47.792;10.616;2023-05-10T16:48:10;11.90;99.90
19561;DHT22;9927;47.792;10.616;2023-05-10T16:50:37;11.80;99.90
19561;DHT22;9927;47.792;10.616;2023-05-10T16:53:04;11.80;99.90
19561;DHT22;9927;47.792;10.616;2023-05-10T16:55:32;11.80;99.90
19561;DHT22;9927;47.792;10.616;2023-05-10T16:57:59;11.80;99.90
19561;DHT22;9927;47.792;10.616;2023-05-10T17:00:29;11.70;99.90
19561;DHT22;9927;47.792;10.616;2023-05-10T17:02:56;11.70;99.90
19561;DHT22;9927;47.792;10.616;2023-05-10T17:05:25;11.80;99.90
19561;DHT22;9927;47.792;10.616;2023-05-10T17:07:52;11.70;99.90
19561;DHT22;9927;47.792;10.616;2023-05-10T17:10:19;11.60;99.90
19561;DHT22;9927;47.792;10.616;2023-05-10T17:12:47;11.30;99.90
19561;DHT22;9927;47.792;10.616;2023-05-10T17:15:14;11.40;99.90
19561;DHT22;9927;47.792;10.616;2023-05-10T17:17:42;11.60;99.90
19561;DHT22;9927;47.792;10.616;2023-05-10T17:20:10;11.60;99.90
19561;DHT22;9927;47.792;10.616;2023-05-10T17:22:37;11.70;99.90
19561;DHT22;9927;47.792;10.616;2023-05-10T17:25:05;11.70;99.90
19561;DHT22;9927;47.792;10.616;2023-05-10T17:27:32;11.80;99.90
19561;DHT22;9927;47.792;10.616;2023-05-10T17:30:00;11.70;99.90
19561;DHT22;9927;47.792;10.616;2023-05-10T17:32:27;11.70;99.90
19561;DHT22;9927;47.792;10.616;2023-05-10T17:34:54;11.70;99.90
19561;DHT22;9927;47.792;10.616;2023-05-10T17:37:21;11.70;99.90
19561;DHT22;9927;47.792;10.616;2023-05-10T17:39:49;11.70;99.90
19561;DHT22;9927;47.792;10.616;2023-05-10T17:42:16;11.90;99.90
19561;DHT22;9927;47.792;10.616;2023-05-10T17:44:46;11.90;99.90
19561;DHT22;9927;47.792;10.616;2023-05-10T17:47:13;11.80;99.90
19561;DHT22;9927;47.792;10.616;2023-05-10T17:49:41;11.80;99.90
19561;DHT22;9927;47.792;10.616;2023-05-10T17:52:08;11.50;99.90
19561;DHT22;9927;47.792;10.616;2023-05-10T17:54:35;11.40;99.90
19561;DHT22;9927;47.792;10.616;2023-05-10T17:57:03;11.30;99.90
19561;DHT22;9927;47.792;10.616;2023-05-10T17:59:30;11.30;99.90
19561;DHT22;9927;47.792;10.616;2023-05-10T18:01:57;11.30;99.90
19561;DHT22;9927;47.792;10.616;2023-05-10T18:04:24;11.20;99.90
19561;DHT22;9927;47.792;10.616;2023-05-10T18:06:52;11.00;99.90
19561;DHT22;9927;47.792;10.616;2023-05-10T18:09:27;11.00;99.90
19561;DHT22;9927;47.792;10.616;2023-05-10T18:11:55;10.90;99.90
19561;DHT22;9927;47.792;10.616;2023-05-10T18:14:22;10.90;99.90
19561;DHT22;9927;47.792;10.616;2023-05-10T18:17:06;10.80;99.90
19561;DHT22;9927;47.792;10.616;2023-05-10T18:19:34;10.80;99.90
19561;DHT22;9927;47.792;10.616;2023-05-10T18:22:01;10.90;99.90
19561;DHT22;9927;47.792;10.616;2023-05-10T18:24:29;10.80;99.90
19561;DHT22;9927;47.792;10.616;2023-05-10T18:27:08;10.90;99.90
19561;DHT22;9927;47.792;10.616;2023-05-10T18:29:35;10.80;99.90
19561;DHT22;9927;47.792;10.616;2023-05-10T18:32:03;10.80;99.90
19561;DHT22;9927;47.792;10.616;2023-05-10T18:34:30;10.80;99.90
19561;DHT22;9927;47.792;10.616;2023-05-10T18:36:58;10.80;99.90
19561;DHT22;9927;47.792;10.616;2023-05-10T18:39:25;10.80;99.90
19561;DHT22;9927;47.792;10.616;2023-05-10T18:41:52;10.80;99.90
19561;DHT22;9927;47.792;10.616;2023-05-10T18:44:20;10.90;99.90
19561;DHT22;9927;47.792;10.616;2023-05-10T18:46:49;10.90;99.90
19561;DHT22;9927;47.792;10.616;2023-05-10T18:49:20;10.80;99.90
19561;DHT22;9927;47.792;10.616;2023-05-10T18:51:47;10.80;99.90
19561;DHT22;9927;47.792;10.616;2023-05-10T18:54:14;10.80;99.90
19561;DHT22;9927;47.792;10.616;2023-05-10T18:56:42;10.70;99.90
19561;DHT22;9927;47.792;10.616;2023-05-10T18:59:11;10.60;99.90
19561;DHT22;9927;47.792;10.616;2023-05-10T19:01:42;10.70;99.90
19561;DHT22;9927;47.792;10.616;2023-05-10T19:04:09;10.60;99.90
19561;DHT22;9927;47.792;10.616;2023-05-10T19:06:36;10.50;99.90
19561;DHT22;9927;47.792;10.616;2023-05-10T19:09:03;10.60;99.90